createdAt,value
2019-01-19T00:02:25.459Z,30.47
2019-01-19T00:05:02.657Z,27.93
2019-01-19T00:07:37.030Z,48.60
2019-01-19T00:10:17.370Z,29.93
2019-01-19T00:13:14.666Z,52.00
2019-01-19T00:16:00.940Z,30.73
2019-01-19T00:18:38.506Z,31.73
2019-01-19T00:21:12.876Z,33.30
2019-01-19T00:23:46.913Z,51.90
2019-01-19T00:26:21.033Z,31.10
2019-01-19T00:29:15.196Z,30.60
2019-01-19T00:31:55.775Z,32.57
2019-01-19T00:34:45.303Z,53.03
2019-01-19T00:37:16.872Z,32.53
2019-01-19T00:39:53.883Z,33.20
2019-01-19T00:42:28.056Z,50.77
2019-01-19T00:45:23.566Z,29.97
2019-01-19T00:48:19.351Z,30.10
2019-01-19T00:50:57.225Z,30.87
2019-01-19T00:53:40.286Z,47.83
2019-01-19T00:56:31.138Z,31.17
2019-01-19T00:59:02.705Z,53.37
2019-01-19T01:01:50.617Z,34.97
2019-01-19T01:04:25.171Z,58.63
2019-01-19T01:07:02.798Z,31.10
2019-01-19T01:09:46.153Z,51.27
2019-01-19T01:12:44.518Z,33.57
2019-01-19T01:15:27.484Z,34.30
2019-01-19T01:17:59.345Z,33.90
2019-01-19T01:20:49.113Z,56.57
2019-01-19T01:23:32.813Z,37.57
2019-01-19T01:26:23.326Z,57.43
2019-01-19T01:29:16.950Z,33.33
2019-01-19T01:31:52.520Z,54.60
2019-01-19T01:34:24.064Z,32.43
2019-01-19T01:36:55.824Z,51.23
2019-01-19T01:39:35.964Z,34.23
2019-01-19T01:42:18.788Z,60.97
2019-01-19T01:45:09.546Z,38.17
2019-01-19T01:47:53.083Z,61.63
2019-01-19T01:50:36.391Z,38.13
2019-01-19T01:53:24.306Z,36.17
2019-01-19T01:55:52.658Z,58.57
2019-01-19T01:58:24.210Z,37.13
2019-01-19T02:00:58.589Z,50.50
2019-01-19T02:03:55.800Z,42.13
2019-01-19T02:06:44.714Z,67.37
2019-01-19T02:09:31.472Z,35.33
2019-01-19T02:12:06.220Z,62.23
2019-01-19T02:14:40.652Z,39.70
2019-01-19T02:17:24.307Z,57.33
2019-01-19T02:20:01.666Z,36.73
2019-01-19T02:22:42.252Z,37.40
2019-01-19T02:25:31.694Z,40.50
2019-01-19T02:28:03.254Z,67.27
2019-01-19T02:30:34.790Z,64.70
2019-01-19T02:33:22.964Z,55.60
2019-01-19T02:36:10.717Z,65.03
2019-01-19T02:38:53.773Z,37.67
2019-01-19T02:41:46.213Z,66.57
2019-01-19T02:44:23.555Z,36.23
2019-01-19T02:47:12.877Z,67.70
2019-01-19T02:50:11.911Z,63.83
2019-01-19T02:53:00.134Z,37.83
2019-01-19T02:55:43.467Z,66.93
2019-01-19T02:58:26.769Z,33.83
2019-01-19T03:00:58.358Z,65.13
2019-01-19T03:03:47.966Z,40.03
2019-01-19T03:06:47.267Z,39.67
2019-01-19T03:09:24.566Z,40.70
2019-01-19T03:12:10.702Z,41.30
2019-01-19T03:14:47.942Z,70.03
2019-01-19T03:20:23.538Z,67.50
2019-01-19T03:23:05.476Z,50.30
2019-01-19T03:26:03.705Z,40.63
2019-01-19T03:28:38.136Z,39.30
2019-01-19T03:31:24.738Z,42.73
2019-01-19T03:34:01.964Z,73.37
2019-01-19T03:37:00.738Z,40.13
2019-01-19T03:39:51.769Z,60.40
2019-01-19T03:42:26.016Z,36.03
2019-01-19T03:45:02.899Z,65.30
2019-01-19T03:47:40.034Z,40.87
2019-01-19T03:50:26.610Z,58.50
2019-01-19T03:53:15.792Z,36.30
2019-01-19T03:55:47.369Z,72.60
2019-01-19T03:58:21.576Z,39.90
2019-01-19T04:01:07.952Z,39.97
2019-01-19T04:03:47.758Z,64.13
2019-01-19T04:06:34.270Z,43.67
2019-01-19T04:09:23.919Z,40.60
2019-01-19T04:11:58.197Z,66.73
2019-01-19T04:14:48.443Z,51.10
2019-01-19T04:17:47.114Z,79.37
2019-01-19T04:20:27.392Z,52.17
2019-01-19T04:22:56.732Z,44.43
2019-01-19T04:25:28.277Z,39.30
2019-01-19T04:27:56.825Z,42.60
2019-01-19T04:30:25.133Z,39.30
2019-01-19T04:45:33.609Z,42.07
2019-01-19T04:48:01.894Z,43.13
2019-01-19T04:50:30.247Z,73.27
2019-01-19T04:53:00.209Z,38.33
2019-01-19T04:55:28.527Z,69.80
2019-01-19T04:57:56.821Z,39.47
2019-01-19T05:00:25.940Z,37.83
2019-01-19T05:02:54.214Z,40.60
2019-01-19T05:05:22.496Z,69.23
2019-01-19T05:18:10.198Z,39.43
2019-01-19T05:23:19.684Z,42.73
2019-01-19T05:25:48.002Z,41.37
2019-01-19T05:28:16.267Z,34.10
2019-01-19T05:30:44.562Z,41.00
2019-01-19T05:48:24.402Z,46.10
2019-01-19T05:50:52.675Z,57.03
2019-01-19T05:53:20.946Z,52.43
2019-01-19T05:55:49.263Z,90.07
2019-01-19T05:58:17.542Z,60.77
2019-01-19T06:00:45.823Z,88.80
2019-01-19T06:03:14.133Z,57.43
2019-01-19T06:05:42.794Z,59.40
2019-01-19T06:08:15.732Z,60.03
2019-01-19T06:10:49.651Z,54.77
2019-01-19T06:13:22.580Z,90.57
2019-01-19T06:15:56.045Z,51.07
2019-01-19T06:18:29.343Z,57.57
2019-01-19T06:21:02.341Z,56.50
2019-01-19T06:23:35.153Z,91.93
2019-01-19T06:26:08.323Z,51.20
2019-01-19T06:28:40.972Z,50.03
2019-01-19T06:31:17.381Z,44.13
2019-01-19T06:33:49.436Z,43.30
2019-01-19T06:36:23.047Z,51.00
2019-01-19T06:38:56.155Z,78.50
2019-01-19T06:41:29.412Z,68.27
2019-01-19T06:44:01.732Z,54.00
2019-01-19T06:46:35.349Z,50.40
2019-01-19T06:49:08.473Z,44.00
2019-01-19T06:51:42.487Z,41.77
2019-01-19T06:54:15.915Z,51.53
2019-01-19T06:56:49.337Z,57.10
2019-01-19T06:59:22.373Z,54.57
2019-01-19T07:01:54.658Z,46.33
2019-01-19T07:04:27.662Z,42.90
2019-01-19T07:07:02.797Z,40.97
2019-01-19T07:09:35.607Z,51.93
2019-01-19T07:12:09.062Z,54.27
2019-01-19T07:14:41.839Z,51.03
2019-01-19T07:17:15.167Z,55.60
2019-01-19T07:19:48.220Z,51.97
2019-01-19T07:22:21.799Z,47.93
2019-01-19T07:24:55.236Z,45.70
2019-01-19T07:27:28.661Z,48.57
2019-01-19T07:30:01.320Z,39.93
2019-01-19T07:32:34.960Z,46.40
2019-01-19T07:35:06.669Z,41.23
2019-01-19T07:37:40.248Z,40.67
2019-01-19T07:40:17.315Z,43.73
2019-01-19T07:42:51.768Z,44.13
2019-01-19T07:45:24.710Z,41.70
2019-01-19T07:47:57.968Z,45.20
2019-01-19T07:50:31.130Z,40.97
2019-01-19T07:53:04.501Z,44.80
2019-01-19T07:55:36.215Z,46.97
2019-01-19T07:58:08.305Z,48.07
2019-01-19T08:00:40.737Z,53.17
2019-01-19T08:03:14.428Z,50.37
2019-01-19T08:05:46.248Z,46.17
2019-01-19T08:08:18.788Z,40.90
2019-01-19T08:10:51.401Z,42.97
2019-01-19T08:13:24.687Z,47.30
2019-01-19T08:15:57.563Z,42.37
2019-01-19T08:18:29.626Z,45.60
2019-01-19T08:21:02.557Z,42.00
2019-01-19T08:23:36.058Z,57.53
2019-01-19T08:26:08.947Z,53.30
2019-01-19T08:28:42.143Z,52.90
2019-01-19T08:31:14.820Z,54.03
2019-01-19T08:33:48.077Z,51.33
2019-01-19T08:36:21.208Z,55.97
2019-01-19T08:38:54.475Z,57.63
2019-01-19T08:41:27.533Z,58.13
2019-01-19T08:44:00.356Z,55.23
2019-01-19T08:46:32.193Z,51.37
2019-01-19T08:49:05.934Z,57.40
2019-01-19T08:51:38.891Z,53.93
2019-01-19T08:54:15.310Z,62.40
2019-01-19T08:56:46.287Z,52.67
2019-01-19T08:59:19.613Z,54.33
2019-01-19T09:01:52.264Z,47.83
2019-01-19T09:04:25.850Z,49.20
2019-01-19T09:06:58.557Z,41.23
2019-01-19T09:09:38.849Z,43.20
2019-01-19T09:12:20.754Z,42.37
2019-01-19T09:15:05.304Z,51.00
2019-01-19T09:17:47.867Z,54.20
2019-01-19T09:20:30.670Z,56.23
2019-01-19T09:23:07.068Z,60.13
2019-01-19T09:25:41.407Z,62.97
2019-01-19T09:28:15.323Z,65.33
2019-01-19T09:30:50.435Z,70.37
2019-01-19T09:33:25.129Z,62.53
2019-01-19T09:35:59.048Z,64.57
2019-01-19T09:38:31.436Z,63.20
2019-01-19T09:41:04.903Z,71.77
2019-01-19T09:43:38.097Z,73.33
2019-01-19T09:46:10.777Z,77.07
2019-01-19T09:48:44.599Z,67.00
2019-01-19T09:51:17.795Z,65.40
2019-01-19T09:53:51.075Z,38.90
2019-01-19T09:56:24.901Z,63.47
2019-01-19T09:58:58.695Z,66.97
2019-01-19T10:01:32.804Z,74.93
2019-01-19T10:04:06.134Z,76.90
2019-01-19T11:37:25.113Z,99.90
2019-01-19T11:41:43.617Z,102.83
2019-01-19T11:44:17.743Z,87.70
2019-01-19T11:46:53.635Z,91.97
2019-01-19T11:49:27.090Z,96.03
2019-01-19T11:52:02.881Z,80.43
2019-01-19T11:54:36.866Z,95.87
2019-01-19T11:57:10.085Z,86.20
2019-01-19T11:59:43.733Z,82.77
2019-01-19T12:02:17.323Z,84.20
2019-01-19T12:04:52.212Z,80.83
2019-01-19T12:07:30.003Z,81.67
2019-01-19T12:10:08.107Z,75.00
2019-01-19T12:12:42.489Z,87.47
2019-01-19T12:15:20.834Z,70.63
2019-01-19T12:17:55.747Z,71.90
2019-01-19T12:20:40.015Z,77.37
2019-01-19T12:23:16.085Z,68.07
2019-01-19T12:25:55.873Z,65.93
2019-01-19T12:28:35.269Z,75.63
2019-01-19T12:31:09.021Z,64.20
2019-01-19T12:33:45.205Z,55.93
2019-01-19T12:36:21.027Z,40.13
2019-01-19T12:38:56.337Z,56.67
2019-01-19T12:41:31.382Z,59.17
2019-01-19T12:44:07.371Z,55.40
2019-01-19T12:46:42.761Z,44.53
2019-01-19T12:49:18.747Z,50.00
2019-01-19T12:51:55.827Z,58.20
2019-01-19T12:54:32.525Z,58.53
2019-01-19T12:57:06.625Z,53.57
2019-01-19T12:59:45.038Z,61.53
2019-01-19T13:02:22.953Z,52.73
2019-01-19T13:04:58.205Z,53.43
2019-01-19T13:07:33.199Z,55.03
2019-01-19T13:10:07.286Z,62.03
2019-01-19T13:12:41.710Z,58.57
2019-01-19T13:15:28.391Z,46.30
2019-01-19T13:18:14.209Z,48.00
2019-01-19T13:21:06.961Z,50.17
2019-01-19T13:23:54.183Z,45.83
2019-01-19T13:26:34.674Z,61.20
2019-01-19T13:29:18.975Z,48.70
2019-01-19T13:32:04.150Z,45.13
2019-01-19T13:34:44.813Z,50.93
2019-01-19T13:37:33.886Z,48.37
2019-01-19T13:40:10.355Z,45.93
2019-01-19T13:43:01.700Z,43.60
2019-01-19T13:45:39.897Z,42.33
2019-01-19T13:48:26.197Z,95.97
2019-01-19T13:51:12.772Z,73.17
2019-01-19T13:54:01.083Z,61.97
2019-01-19T13:56:49.042Z,50.00
2019-01-19T13:59:26.715Z,47.50
2019-01-19T14:02:22.684Z,44.87
2019-01-19T14:05:00.665Z,48.80
2019-01-19T14:07:56.905Z,48.17
2019-01-19T14:10:38.450Z,49.60
2019-01-19T14:13:27.922Z,60.87
2019-01-19T14:16:17.986Z,49.20
2019-01-19T14:19:02.541Z,40.00
2019-01-19T14:21:46.319Z,41.27
2019-01-19T14:24:22.290Z,45.03
2019-01-19T14:27:06.366Z,49.63
2019-01-19T14:29:45.340Z,48.87
2019-01-19T14:32:28.125Z,51.67
2019-01-19T14:35:21.525Z,52.40
2019-01-19T14:38:20.962Z,45.87
2019-01-19T14:41:04.379Z,50.97
2019-01-19T14:43:57.222Z,59.37
2019-01-19T14:46:41.770Z,117.60
2019-01-19T14:49:19.053Z,74.97
2019-01-19T14:52:03.849Z,110.87
2019-01-19T14:54:48.807Z,89.67
2019-01-19T14:57:36.764Z,134.13
2019-01-19T15:00:29.817Z,116.60
2019-01-19T15:03:20.760Z,601.67
2019-01-19T15:06:08.896Z,722.23
2019-01-19T15:08:47.231Z,639.17
2019-01-19T15:11:32.655Z,974.93
2019-01-19T15:14:15.459Z,1988.77
2019-01-19T15:17:13.166Z,1108.10
2019-01-19T15:20:19.051Z,406.50
2019-01-19T15:22:53.892Z,604.17
2019-01-19T15:25:40.505Z,1810.20
2019-01-19T15:28:47.530Z,619.13
2019-01-19T15:31:40.228Z,285.93
2019-01-19T15:34:29.500Z,204.77
2019-01-19T15:37:08.055Z,1216.40
2019-01-19T15:39:58.476Z,453.30
2019-01-19T15:42:33.524Z,441.07
2019-01-19T15:45:25.754Z,149.23
2019-01-19T15:48:18.701Z,110.73
2019-01-19T15:51:20.698Z,102.53
2019-01-19T15:54:01.450Z,69.80
